Tiller, Oregon
Current Conditions -  °F | °C
As of 10:53 AM on Thursday 23 Oct 2014 (Local Time) from KRBG Reporting Station
Overcast Overcast  
Wind Chill: 60°   Ceiling: 5500
Heat Index: 60°   Visibility: 10mi
Dew Point: 52°   Wind: 3mph
Humidity: 75%   Direction: 140°SE
Pressure: 29.93"   Gusts: NA
Location:  42.93°N, 122.95°W
Report Text: KRBG 231753Z AUTO 14003KT 10SM FEW038 SCT045 OVC055 16/11 A2993 RMK AO2 SLP136 60004 T01560111 10156 20144 51023
Loading
Personal Weather Stations






























Interactive Weather Map
Tropical Storm Tracking
New forecast layout! Learn more

10-Day Weather Forecast

Advertisements
Track Severe Weather on mobile